Time;durP1;ratioP1;P1;durP2;ratioP2;P2;SDS_P1;SDS_P2;PMS_P1;PMS_P2;Temp;Humidity;BMP_temperature;BMP_pressure;BME280_temperature;BME280_humidity;BME280_pressure;Samples;Min_cycle;Max_cycle;Signal;HPM_P1;HPM_P2
2023/12/09 00:01:50;;;;;;;26.92;14.73;;;;;;;2.44;82.81;92511.66;2071530;69;20670;-85
2023/12/09 00:04:15;;;;;;;20.30;12.88;;;;;;;2.45;82.23;92520.72;2071543;69;20180;-85
2023/12/09 00:06:48;;;;;;;28.40;16.25;;;;;;;2.29;83.60;92520.03;2071613;69;20151;-88
2023/12/09 00:09:15;;;;;;;24.70;15.30;;;;;;;2.35;82.91;92533.72;2070776;69;20132;-88
2023/12/09 00:11:41;;;;;;;25.10;14.73;;;;;;;2.32;83.32;92530.03;2071389;69;20140;-86
2023/12/09 00:14:07;;;;;;;21.40;13.13;;;;;;;2.29;83.16;92533.91;2071447;69;20144;-81
2023/12/09 00:16:34;;;;;;;23.50;14.25;;;;;;;2.31;83.25;92520.22;2071496;69;20645;-83
2023/12/09 00:19:00;;;;;;;23.58;13.95;;;;;;;2.35;82.72;92517.81;2073780;69;20239;-82
2023/12/09 00:21:26;;;;;;;25.48;13.82;;;;;;;2.37;82.70;92511.66;2074657;69;20237;-80
2023/12/09 00:23:52;;;;;;;25.08;14.15;;;;;;;2.20;82.39;92517.84;2071487;69;20176;-81
2023/12/09 00:26:20;;;;;;;25.80;14.18;;;;;;;2.23;83.44;92519.50;2069292;69;20558;-79
2023/12/09 00:28:47;;;;;;;39.83;16.50;;;;;;;1.93;84.42;92523.88;2068489;69;20148;-81
2023/12/09 00:31:13;;;;;;;28.48;16.83;;;;;;;2.21;84.00;92525.63;2068534;69;20194;-79
2023/12/09 00:33:38;;;;;;;29.23;16.00;;;;;;;2.35;83.46;92525.41;2068607;69;20571;-80
2023/12/09 00:36:04;;;;;;;29.92;15.98;;;;;;;2.38;83.03;92530.53;2072031;69;20136;-80
2023/12/09 00:38:30;;;;;;;32.05;16.10;;;;;;;2.39;82.34;92531.31;2068632;69;20160;-82
2023/12/09 00:40:56;;;;;;;34.38;16.73;;;;;;;2.38;82.37;92529.81;2071945;69;20689;-82
2023/12/09 00:43:21;;;;;;;30.92;16.50;;;;;;;2.45;82.52;92529.78;2071325;69;20602;-82
2023/12/09 00:45:47;;;;;;;31.00;16.38;;;;;;;2.42;82.53;92524.63;2071499;69;20670;-88
2023/12/09 00:48:12;;;;;;;30.75;16.02;;;;;;;2.42;82.22;92535.72;2072059;69;20147;-80
2023/12/09 00:50:39;;;;;;;35.97;16.33;;;;;;;2.42;82.45;92538.50;2071846;69;20201;-88
2023/12/09 00:53:05;;;;;;;30.40;16.80;;;;;;;2.41;82.49;92528.69;2071878;69;20151;-82
2023/12/09 00:55:31;;;;;;;30.55;16.23;;;;;;;2.42;82.41;92522.56;2072008;69;20152;-85
2023/12/09 00:57:56;;;;;;;33.08;17.48;;;;;;;2.35;83.13;92528.91;2071943;69;20606;-82
2023/12/09 01:00:25;;;;;;;32.17;16.48;;;;;;;2.31;82.94;92530.59;2071944;69;20140;-84
2023/12/09 01:02:50;;;;;;;28.05;15.57;;;;;;;2.36;82.21;92521.31;2071902;69;20228;-86
2023/12/09 01:05:16;;;;;;;26.25;14.98;;;;;;;2.32;82.89;92520.97;2068558;69;20260;-81
2023/12/09 01:07:42;;;;;;;26.38;15.18;;;;;;;2.24;83.12;92527.28;2068463;69;20148;-87
2023/12/09 01:10:08;;;;;;;30.75;16.38;;;;;;;2.04;83.26;92533.81;2068551;69;20198;-88
2023/12/09 01:12:34;;;;;;;27.67;15.20;;;;;;;2.21;83.19;92539.53;2071879;69;20148;-86
2023/12/09 01:14:59;;;;;;;27.48;15.02;;;;;;;2.22;83.22;92543.03;2071815;69;20151;-86
2023/12/09 01:17:25;;;;;;;25.77;14.70;;;;;;;2.25;83.14;92550.25;2068259;69;20148;-88
2023/12/09 01:19:50;;;;;;;23.98;14.23;;;;;;;2.24;83.04;92545.97;2065554;69;20602;-86
2023/12/09 01:22:17;;;;;;;25.13;14.57;;;;;;;2.22;82.77;92545.81;2071797;69;20179;-82
2023/12/09 01:24:43;;;;;;;24.77;14.07;;;;;;;2.18;82.46;92551.00;2071847;69;20144;-84
2023/12/09 01:27:09;;;;;;;26.77;14.98;;;;;;;2.09;83.03;92551.59;2068468;69;20156;-85
2023/12/09 01:29:36;;;;;;;23.23;13.77;;;;;;;2.11;83.91;92558.06;2071886;69;20253;-85
2023/12/09 01:32:02;;;;;;;25.17;14.45;;;;;;;2.12;83.43;92558.81;2071868;69;20136;-85
2023/12/09 01:34:29;;;;;;;29.65;15.52;;;;;;;2.17;83.49;92550.25;2071846;69;20288;-87
2023/12/09 01:36:54;;;;;;;28.45;14.55;;;;;;;2.23;83.09;92548.00;2068319;69;20124;-86
2023/12/09 01:39:20;;;;;;;32.10;16.85;;;;;;;2.17;83.43;92553.03;2067688;69;20230;-86
2023/12/09 01:41:47;;;;;;;31.13;15.75;;;;;;;2.17;83.29;92553.03;2068283;69;20267;-81
2023/12/09 01:44:12;;;;;;;31.60;16.13;;;;;;;2.19;83.29;92561.53;2068468;69;20132;-88
2023/12/09 01:46:41;;;;;;;28.73;14.88;;;;;;;2.21;82.77;92558.22;2068364;69;20136;-88
2023/12/09 01:49:07;;;;;;;28.13;14.88;;;;;;;2.21;82.70;92558.97;2071737;69;20156;-86
2023/12/09 01:51:35;;;;;;;29.30;16.20;;;;;;;2.13;82.56;92549.16;2071606;69;20705;-88
2023/12/09 01:54:04;;;;;;;36.40;16.17;;;;;;;1.95;84.29;92551.78;2071660;69;20144;-82
2023/12/09 01:56:33;;;;;;;29.63;16.42;;;;;;;2.07;84.10;92562.53;2068598;69;20227;-87
2023/12/09 01:59:00;;;;;;;38.28;17.95;;;;;;;2.07;83.56;92557.72;2065584;69;20133;-87
2023/12/09 02:01:27;;;;;;;33.35;17.35;;;;;;;2.06;84.35;92558.97;2068103;69;20155;-87
2023/12/09 02:03:53;;;;;;;33.35;16.63;;;;;;;2.11;83.43;92557.31;2068425;69;20232;-86
2023/12/09 02:06:20;;;;;;;32.65;16.80;;;;;;;2.17;83.64;92560.63;2071699;69;20202;-85
2023/12/09 02:08:45;;;;;;;29.65;16.27;;;;;;;2.15;83.57;92569.50;2071676;69;20689;-87
2023/12/09 02:11:28;;;;;;;32.65;16.25;;;;;;;2.21;83.34;92578.41;2071700;69;20337;-87
2023/12/09 02:14:04;;;;;;;30.73;16.15;;;;;;;2.22;82.89;92582.66;2071853;69;20765;-86
2023/12/09 02:16:43;;;;;;;34.58;16.83;;;;;;;2.24;82.93;92587.63;2071802;69;20148;-86
2023/12/09 02:19:12;;;;;;;33.15;16.73;;;;;;;2.25;82.89;92583.59;2071784;69;20511;-88
2023/12/09 02:22:06;;;;;;;30.95;17.45;;;;;;;2.22;83.10;92576.38;2071629;69;20145;-87
2023/12/09 02:24:33;;;;;;;32.28;16.98;;;;;;;2.23;82.97;92575.06;2071660;69;20159;-84
2023/12/09 02:27:07;;;;;;;29.30;15.48;;;;;;;2.25;81.86;92564.88;2071494;69;20219;-82
2023/12/09 02:29:39;;;;;;;32.63;16.55;;;;;;;2.00;84.49;92566.78;2071792;69;20152;-88
2023/12/09 02:32:07;;;;;;;36.22;17.25;;;;;;;2.17;83.92;92564.16;2071890;69;20224;-87
2023/12/09 02:34:37;;;;;;;33.88;17.23;;;;;;;2.20;83.52;92562.28;2071876;69;20140;-86
2023/12/09 02:37:06;;;;;;;33.15;16.95;;;;;;;2.12;83.49;92551.22;2071850;69;20144;-86
2023/12/09 02:39:32;;;;;;;34.53;17.35;;;;;;;2.19;83.23;92564.31;2071567;69;20171;-87
2023/12/09 02:41:58;;;;;;;33.45;17.13;;;;;;;2.14;83.61;92570.81;2072119;69;20206;-88
2023/12/09 02:44:25;;;;;;;36.33;16.92;;;;;;;2.20;83.41;92565.06;2069085;69;20587;-82
2023/12/09 02:46:55;;;;;;;34.15;17.05;;;;;;;2.14;83.40;92565.25;2072632;69;20546;-86
2023/12/09 02:49:22;;;;;;;40.15;17.45;;;;;;;1.96;84.22;92555.31;2072414;69;20594;-87
2023/12/09 02:51:49;;;;;;;34.72;16.88;;;;;;;1.99;83.88;92535.50;2065984;69;20145;-86
2023/12/09 02:54:15;;;;;;;29.55;16.17;;;;;;;2.12;83.68;92553.25;2071466;69;20144;-83
2023/12/09 02:56:41;;;;;;;32.72;16.52;;;;;;;2.14;83.85;92568.03;2071644;69;20147;-84
2023/12/09 02:59:07;;;;;;;32.22;16.80;;;;;;;2.02;84.00;92572.53;2071516;69;20494;-83
2023/12/09 03:01:33;;;;;;;48.20;16.95;;;;;;;1.88;85.08;92583.09;2071548;69;20238;-77
2023/12/09 03:03:58;;;;;;;43.00;17.05;;;;;;;1.89;85.86;92578.28;2071542;69;20228;-80
2023/12/09 03:06:24;;;;;;;41.80;17.88;;;;;;;1.91;85.44;92581.97;2071667;69;20129;-79
2023/12/09 03:08:50;;;;;;;34.50;17.05;;;;;;;1.69;86.40;92574.41;2071404;69;20229;-79
2023/12/09 03:11:18;;;;;;;36.13;16.50;;;;;;;1.91;85.98;92584.75;2071565;69;20155;-85
2023/12/09 03:13:44;;;;;;;28.00;15.82;;;;;;;2.08;84.49;92586.22;2071680;69;20594;-79
2023/12/09 03:16:10;;;;;;;27.88;15.50;;;;;;;1.83;85.58;92594.38;2071818;69;20141;-84
2023/12/09 03:18:36;;;;;;;28.98;15.65;;;;;;;1.84;85.92;92593.09;2071934;69;20250;-86
2023/12/09 03:21:01;;;;;;;25.55;14.40;;;;;;;1.92;85.22;92589.00;2072103;69;20151;-83
2023/12/09 03:23:29;;;;;;;25.92;14.02;;;;;;;2.05;84.63;92596.38;2071772;69;20175;-86
2023/12/09 03:25:54;;;;;;;24.65;13.75;;;;;;;2.12;84.59;92592.13;2071739;69;20514;-84
2023/12/09 03:28:20;;;;;;;22.02;13.30;;;;;;;2.15;83.84;92585.44;2071827;69;20148;-80
2023/12/09 03:30:45;;;;;;;22.27;13.77;;;;;;;2.12;83.68;92594.91;2072060;69;20241;-79
2023/12/09 03:33:11;;;;;;;22.73;13.88;;;;;;;2.10;83.63;92592.66;2073277;69;20136;-85
2023/12/09 03:35:36;;;;;;;21.45;13.00;;;;;;;2.14;83.31;92595.06;2072836;69;20493;-79
2023/12/09 03:38:02;;;;;;;20.58;12.52;;;;;;;2.20;82.60;92599.16;2066644;69;20250;-77
2023/12/09 03:40:28;;;;;;;20.98;12.60;;;;;;;2.05;83.62;92601.94;2073639;69;20147;-79
2023/12/09 03:42:54;;;;;;;21.17;13.48;;;;;;;2.06;84.21;92613.78;2073826;69;20584;-79
2023/12/09 03:45:20;;;;;;;21.25;13.70;;;;;;;2.09;83.26;92616.19;2072735;69;20193;-79
2023/12/09 03:47:46;;;;;;;23.40;13.50;;;;;;;2.14;83.34;92615.25;2072469;69;20159;-79
2023/12/09 03:50:12;;;;;;;23.67;13.57;;;;;;;1.90;84.27;92608.25;2072788;69;20144;-78
2023/12/09 03:52:37;;;;;;;22.40;13.77;;;;;;;1.63;85.46;92599.56;2072950;69;20148;-79
2023/12/09 03:55:03;;;;;;;22.48;13.77;;;;;;;1.95;85.08;92596.22;2072251;69;20256;-82
2023/12/09 03:57:29;;;;;;;21.63;13.90;;;;;;;2.00;84.58;92595.28;2073025;69;20480;-86
2023/12/09 03:59:55;;;;;;;21.67;13.43;;;;;;;1.83;84.93;92586.78;2069260;69;20207;-81
2023/12/09 04:02:21;;;;;;;23.63;14.45;;;;;;;1.60;86.28;92578.47;2069130;69;20645;-80
2023/12/09 04:04:46;;;;;;;21.90;13.15;;;;;;;1.88;85.44;92579.56;2072467;69;20172;-79
2023/12/09 04:07:12;;;;;;;21.70;13.23;;;;;;;1.90;85.30;92582.53;2072456;69;20164;-85
2023/12/09 04:09:38;;;;;;;23.83;13.18;;;;;;;1.89;84.24;92565.16;2072012;69;20164;-79
2023/12/09 04:12:04;;;;;;;20.30;12.38;;;;;;;1.96;83.92;92560.88;2072061;69;20144;-81
2023/12/09 04:14:30;;;;;;;19.63;11.82;;;;;;;1.69;84.68;92555.72;2072052;69;20218;-80
2023/12/09 04:16:55;;;;;;;24.35;14.02;;;;;;;1.16;88.55;92561.28;2071988;69;20163;-81
2023/12/09 04:19:21;;;;;;;22.60;13.82;;;;;;;1.53;86.98;92568.16;2071934;69;20228;-82
2023/12/09 04:21:47;;;;;;;22.58;13.52;;;;;;;1.58;87.03;92575.53;2072002;69;20546;-78
2023/12/09 04:24:14;;;;;;;25.63;13.57;;;;;;;1.87;85.15;92562.16;2068500;69;20152;-79
2023/12/09 04:26:39;;;;;;;23.13;13.65;;;;;;;1.51;86.02;92562.41;2072026;69;20736;-86
2023/12/09 04:29:06;;;;;;;21.05;12.77;;;;;;;1.79;85.34;92555.91;2068484;69;20176;-85
2023/12/09 04:31:33;;;;;;;23.50;14.00;;;;;;;1.65;85.40;92560.94;2072023;69;20140;-87
2023/12/09 04:33:59;;;;;;;22.85;13.68;;;;;;;1.74;84.88;92559.59;2071854;69;20152;-84
2023/12/09 04:36:26;;;;;;;23.77;14.02;;;;;;;1.67;85.35;92557.59;2071849;69;20136;-85
2023/12/09 04:38:51;;;;;;;30.38;15.70;;;;;;;1.27;86.45;92556.09;2071658;69;20151;-84
2023/12/09 04:41:17;;;;;;;26.88;15.98;;;;;;;1.59;85.79;92557.59;2072006;69;20158;-87
2023/12/09 04:43:42;;;;;;;28.13;15.55;;;;;;;1.71;85.46;92549.63;2071877;69;20144;-86
2023/12/09 04:46:08;;;;;;;28.20;15.75;;;;;;;1.81;84.81;92549.81;2071826;69;20149;-86
2023/12/09 04:48:35;;;;;;;41.47;16.23;;;;;;;1.80;84.75;92551.84;2071889;69;20128;-87
2023/12/09 04:51:00;;;;;;;28.35;15.38;;;;;;;1.76;84.66;92545.91;2071826;69;20178;-88
2023/12/09 04:53:26;;;;;;;30.50;16.80;;;;;;;1.72;84.39;92546.28;2071914;69;20631;-79
2023/12/09 04:55:54;;;;;;;113.40;19.27;;;;;;;1.42;85.35;92551.84;2071577;69;20484;-87
2023/12/09 04:58:20;;;;;;;75.68;19.45;;;;;;;1.34;86.54;92537.28;2071709;69;20148;-87
2023/12/09 05:00:46;;;;;;;35.22;17.02;;;;;;;1.31;87.12;92532.81;2071811;69;20144;-87
2023/12/09 05:03:11;;;;;;;36.33;16.83;;;;;;;1.48;87.17;92542.06;2071802;69;20137;-85
2023/12/09 05:05:37;;;;;;;34.67;16.25;;;;;;;1.64;85.65;92547.59;2071634;69;20623;-83
2023/12/09 05:08:04;;;;;;;31.90;16.23;;;;;;;1.73;85.04;92547.75;2071667;69;20588;-85
2023/12/09 05:10:31;;;;;;;31.00;16.17;;;;;;;1.80;84.91;92560.16;2071946;69;20155;-79
2023/12/09 05:12:57;;;;;;;37.58;16.80;;;;;;;1.76;85.04;92551.47;2072008;69;20160;-80
2023/12/09 05:15:22;;;;;;;42.78;17.02;;;;;;;1.69;85.70;92561.28;2071631;69;20151;-83
2023/12/09 05:17:48;;;;;;;37.80;16.75;;;;;;;1.85;85.35;92561.28;2072481;69;20229;-80
2023/12/09 05:20:14;;;;;;;47.45;16.95;;;;;;;1.89;84.92;92576.25;2071878;69;20597;-82
2023/12/09 05:22:40;;;;;;;216.93;23.73;;;;;;;1.69;85.37;92582.72;2071855;69;20183;-79
2023/12/09 05:25:07;;;;;;;275.50;24.60;;;;;;;1.62;86.31;92581.47;2068574;69;20152;-85
2023/12/09 05:27:32;;;;;;;272.25;27.35;;;;;;;1.58;86.58;92581.09;2071844;69;20653;-86
2023/12/09 05:29:58;;;;;;;77.45;19.38;;;;;;;1.71;86.17;92580.16;2071749;69;20157;-80
2023/12/09 05:32:24;;;;;;;208.57;22.70;;;;;;;1.70;86.52;92573.88;2071820;69;20164;-81
2023/12/09 05:34:49;;;;;;;134.32;21.23;;;;;;;1.40;88.40;92571.84;2071680;69;20218;-84
2023/12/09 05:37:15;;;;;;;28.58;16.73;;;;;;;1.69;87.40;92571.63;2071841;69;20522;-83
2023/12/09 05:39:42;;;;;;;28.65;16.75;;;;;;;1.89;85.99;92567.19;2071676;69;20153;-87
2023/12/09 05:42:08;;;;;;;32.40;18.67;;;;;;;1.81;86.47;92564.41;2072004;69;20575;-84
2023/12/09 05:44:36;;;;;;;34.97;18.15;;;;;;;1.92;85.65;92579.94;2071752;69;20229;-78
2023/12/09 05:47:03;;;;;;;30.80;17.67;;;;;;;1.91;85.41;92581.97;2071765;69;20152;-85
2023/12/09 05:49:29;;;;;;;33.28;17.65;;;;;;;1.98;85.07;92581.22;2071767;69;20163;-82
2023/12/09 05:51:55;;;;;;;38.85;17.73;;;;;;;1.77;85.91;92586.25;2071812;69;20152;-85
2023/12/09 05:54:21;;;;;;;61.25;19.67;;;;;;;1.39;87.68;92586.28;2071666;69;20584;-83
2023/12/09 05:56:50;;;;;;;97.30;20.20;;;;;;;1.45;87.98;92587.56;2071927;69;20178;-83
2023/12/09 05:59:16;;;;;;;46.22;19.13;;;;;;;1.73;87.57;92583.09;2071805;69;20156;-86
2023/12/09 06:01:42;;;;;;;44.17;18.02;;;;;;;1.94;86.51;92589.19;2071754;69;20596;-86
2023/12/09 06:04:08;;;;;;;34.00;18.27;;;;;;;2.03;85.68;92594.19;2071818;69;20254;-86
2023/12/09 06:06:34;;;;;;;35.25;18.10;;;;;;;2.09;85.06;92596.75;2071786;69;20544;-86
2023/12/09 06:08:59;;;;;;;67.95;18.85;;;;;;;1.99;85.43;92588.25;2071681;69;20546;-85
2023/12/09 06:11:25;;;;;;;40.85;18.48;;;;;;;2.10;85.36;92594.72;2071959;69;20144;-87
2023/12/09 06:13:52;;;;;;;33.72;17.45;;;;;;;2.15;84.65;92602.09;2071871;69;20152;-87
2023/12/09 06:16:18;;;;;;;32.10;17.08;;;;;;;2.10;85.19;92600.28;2068556;69;20144;-83
2023/12/09 06:18:45;;;;;;;36.15;17.55;;;;;;;2.11;84.90;92593.41;2071743;69;20552;-85
2023/12/09 06:21:22;;;;;;;32.90;16.77;;;;;;;2.18;84.18;92593.41;2068443;69;20136;-85
2023/12/09 06:23:49;;;;;;;39.95;17.20;;;;;;;2.18;85.01;92585.06;2071570;69;20156;-85
2023/12/09 06:26:15;;;;;;;36.28;17.35;;;;;;;2.23;84.19;92583.38;2071720;69;20148;-85
2023/12/09 06:28:41;;;;;;;31.65;16.58;;;;;;;2.21;83.90;92574.88;2068439;69;20160;-87
2023/12/09 06:31:07;;;;;;;36.42;18.08;;;;;;;2.23;84.31;92592.47;2071726;69;20175;-86
2023/12/09 06:33:33;;;;;;;34.00;17.48;;;;;;;2.24;83.87;92596.72;2071783;69;20687;-85
2023/12/09 06:35:59;;;;;;;32.70;16.40;;;;;;;2.22;83.93;92577.09;2071707;69;20144;-86
2023/12/09 06:38:25;;;;;;;32.47;17.15;;;;;;;2.28;83.77;92599.84;2071589;69;20175;-85
2023/12/09 06:40:51;;;;;;;30.38;16.13;;;;;;;2.24;84.11;92599.47;2071959;69;20132;-85
2023/12/09 06:43:16;;;;;;;30.42;16.00;;;;;;;2.25;84.41;92601.00;2071755;69;20145;-86
2023/12/09 06:45:42;;;;;;;31.83;16.42;;;;;;;2.20;84.19;92604.72;2068387;69;20176;-86
2023/12/09 06:48:10;;;;;;;25.63;15.00;;;;;;;2.18;84.01;92604.50;2068451;69;20592;-87
2023/12/09 06:50:36;;;;;;;27.02;15.63;;;;;;;2.16;84.23;92611.94;2071702;69;20145;-84
2023/12/09 06:53:01;;;;;;;27.33;15.02;;;;;;;2.17;84.06;92614.16;2068234;69;20186;-83
2023/12/09 06:55:27;;;;;;;25.60;15.82;;;;;;;2.03;84.89;92615.66;2071658;69;20160;-80
2023/12/09 06:57:55;;;;;;;28.85;17.50;;;;;;;1.83;85.97;92619.38;2065717;69;20144;-86
2023/12/09 07:00:21;;;;;;;29.38;16.35;;;;;;;1.57;86.76;92624.00;2068321;69;20221;-80
2023/12/09 07:02:46;;;;;;;38.95;15.43;;;;;;;1.36;88.26;92620.66;2071625;69;20171;-80
2023/12/09 07:05:13;;;;;;;34.63;17.83;;;;;;;1.74;87.49;92626.97;2068246;69;20160;-79
2023/12/09 07:07:41;;;;;;;36.10;18.42;;;;;;;1.50;87.65;92627.50;2071557;69;20148;-80
2023/12/09 07:10:08;;;;;;;28.02;14.07;;;;;;;1.53;88.72;92626.41;2068316;69;20610;-80
2023/12/09 07:12:33;;;;;;;78.03;36.25;;;;;;;1.67;87.53;92626.97;2068277;69;20219;-86
2023/12/09 07:14:59;;;;;;;175.20;97.50;;;;;;;1.86;86.80;92619.00;2071685;69;20150;-80
2023/12/09 07:17:25;;;;;;;81.97;50.05;;;;;;;1.88;86.35;92621.22;2071589;69;20144;-80
2023/12/09 07:19:52;;;;;;;47.25;28.98;;;;;;;1.86;86.75;92623.81;2072140;69;20150;-86
2023/12/09 07:22:22;;;;;;;37.55;21.92;;;;;;;1.82;86.22;92624.19;2071628;69;20657;-83
2023/12/09 07:24:48;;;;;;;31.75;21.13;;;;;;;1.96;86.11;92621.94;2071613;69;20176;-84
2023/12/09 07:27:17;;;;;;;29.58;17.05;;;;;;;1.70;86.38;92618.28;2071591;69;20658;-85
2023/12/09 07:29:43;;;;;;;51.60;36.95;;;;;;;1.84;86.65;92629.19;2072027;69;20603;-86
2023/12/09 07:32:09;;;;;;;28.55;16.85;;;;;;;2.03;85.82;92624.72;2068505;69;20175;-79
2023/12/09 07:34:35;;;;;;;28.55;15.32;;;;;;;2.00;85.70;92617.50;2071311;69;20144;-82
2023/12/09 07:37:01;;;;;;;47.40;35.53;;;;;;;1.81;86.35;92613.63;2071549;69;20132;-79
2023/12/09 07:39:26;;;;;;;35.75;24.20;;;;;;;2.01;85.87;92618.22;2067995;69;20164;-83
2023/12/09 07:41:53;;;;;;;33.22;17.27;;;;;;;2.01;85.72;92618.22;2068570;69;20144;-80
2023/12/09 07:44:20;;;;;;;26.60;15.73;;;;;;;1.74;86.57;92620.66;2071552;69;20215;-85
2023/12/09 07:46:48;;;;;;;27.33;15.25;;;;;;;2.09;85.90;92621.00;2065432;69;20536;-81
2023/12/09 07:49:13;;;;;;;23.83;14.07;;;;;;;2.12;85.05;92617.88;2071573;69;20543;-82
2023/12/09 07:51:39;;;;;;;24.02;13.60;;;;;;;2.08;84.74;92609.16;2071855;69;20144;-79
2023/12/09 07:54:08;;;;;;;24.30;14.10;;;;;;;2.12;84.96;92606.75;2071677;69;20136;-83
2023/12/09 07:56:33;;;;;;;25.67;14.18;;;;;;;2.22;85.00;92615.25;2072099;69;20128;-86
2023/12/09 07:59:01;;;;;;;23.90;13.75;;;;;;;2.04;84.82;92611.56;2072315;69;20148;-86
2023/12/09 08:01:27;;;;;;;25.65;14.60;;;;;;;2.14;85.80;92609.69;2072101;69;20232;-89
2023/12/09 08:03:52;;;;;;;28.10;15.82;;;;;;;2.19;84.87;92613.59;2070158;69;20143;-86
2023/12/09 08:06:18;;;;;;;28.73;14.60;;;;;;;2.28;85.31;92621.34;2071727;69;20151;-86
2023/12/09 08:08:44;;;;;;;34.05;17.63;;;;;;;2.40;84.71;92613.34;2071924;69;20532;-83
2023/12/09 08:11:10;;;;;;;38.13;18.23;;;;;;;2.54;84.05;92620.91;2076105;69;20219;-84
2023/12/09 08:13:36;;;;;;;53.25;17.77;;;;;;;2.60;83.70;92617.91;2076150;69;20150;-83
2023/12/09 08:16:01;;;;;;;34.78;17.42;;;;;;;2.57;84.00;92619.06;2074927;69;20144;-85
2023/12/09 08:18:28;;;;;;;41.65;17.85;;;;;;;2.32;84.59;92627.25;2073895;69;20156;-85
2023/12/09 08:20:55;;;;;;;30.88;15.90;;;;;;;2.53;85.08;92632.59;2073296;69;20147;-83
2023/12/09 08:23:20;;;;;;;36.03;16.30;;;;;;;2.74;83.89;92632.31;2071867;69;20129;-83
2023/12/09 08:25:46;;;;;;;31.63;15.13;;;;;;;2.84;83.91;92624.88;2073185;69;20175;-83
2023/12/09 08:28:12;;;;;;;56.92;15.52;;;;;;;2.86;82.99;92625.03;2069528;69;20196;-86
2023/12/09 08:30:39;;;;;;;64.05;17.75;;;;;;;2.71;83.46;92614.00;2071715;69;20141;-88
2023/12/09 08:33:04;;;;;;;49.45;17.23;;;;;;;2.66;84.16;92612.16;2069822;69;20151;-87
2023/12/09 08:35:30;;;;;;;45.53;17.35;;;;;;;3.09;83.26;92613.81;2073348;69;20152;-86
2023/12/09 08:37:56;;;;;;;34.10;17.65;;;;;;;3.32;82.98;92605.34;2073199;69;20244;-86
2023/12/09 08:40:22;;;;;;;44.13;21.40;;;;;;;3.46;82.47;92611.38;2072244;69;20148;-86
2023/12/09 08:42:47;;;;;;;42.00;21.27;;;;;;;3.38;81.76;92616.22;2072136;69;20168;-84
2023/12/09 08:45:16;;;;;;;32.42;16.20;;;;;;;3.28;81.34;92616.13;2072488;69;20227;-84
2023/12/09 08:47:42;;;;;;;23.38;13.57;;;;;;;2.74;81.75;92619.16;2069439;69;20239;-85
2023/12/09 08:50:09;;;;;;;24.00;13.10;;;;;;;2.38;83.31;92618.72;2073180;69;20231;-88
2023/12/09 08:52:35;;;;;;;25.95;14.25;;;;;;;1.93;85.49;92629.38;2072549;69;20133;-87
2023/12/09 08:55:02;;;;;;;29.60;15.52;;;;;;;2.37;84.65;92642.25;2072138;69;20159;-87
2023/12/09 08:57:28;;;;;;;31.30;15.45;;;;;;;2.43;84.91;92635.22;2071877;69;20128;-94
2023/12/09 08:59:55;;;;;;;29.27;15.80;;;;;;;2.77;84.31;92640.28;2072851;69;20590;-83
2023/12/09 09:02:22;;;;;;;34.05;15.65;;;;;;;3.17;82.74;92644.38;2071993;69;20155;-86
2023/12/09 09:04:48;;;;;;;29.30;14.57;;;;;;;3.17;81.92;92655.50;2072129;69;20132;-85
2023/12/09 09:07:14;;;;;;;28.10;14.57;;;;;;;2.66;82.89;92654.59;2071973;69;20631;-87
2023/12/09 09:09:39;;;;;;;27.23;15.55;;;;;;;2.76;83.31;92643.63;2071846;69;20145;-92
2023/12/09 09:12:06;;;;;;;27.83;14.95;;;;;;;3.13;82.82;92636.41;2071992;69;20152;-83
2023/12/09 09:14:33;;;;;;;36.58;19.50;;;;;;;3.30;81.00;92636.50;2071898;69;20231;-81
2023/12/09 09:16:59;;;;;;;26.73;15.43;;;;;;;3.12;81.22;92634.22;2071971;69;20592;-82
2023/12/09 09:19:25;;;;;;;27.65;15.30;;;;;;;3.24;81.29;92627.63;2071926;69;20335;-83
2023/12/09 09:21:52;;;;;;;28.67;15.65;;;;;;;3.23;81.30;92630.97;2068716;69;20235;-81
2023/12/09 09:24:18;;;;;;;29.02;15.43;;;;;;;2.80;82.26;92627.31;2071789;69;20144;-81
2023/12/09 09:26:44;;;;;;;30.67;15.07;;;;;;;3.17;81.54;92636.03;2072037;69;20156;-85
2023/12/09 09:29:10;;;;;;;26.52;14.73;;;;;;;3.16;81.86;92632.50;2071843;69;20156;-88
2023/12/09 09:31:36;;;;;;;38.92;15.98;;;;;;;2.51;82.86;92621.28;2071874;69;20155;-89
2023/12/09 09:34:02;;;;;;;28.73;15.38;;;;;;;3.18;82.22;92609.69;2068665;69;20144;-90
2023/12/09 09:36:27;;;;;;;31.75;16.25;;;;;;;3.53;80.89;92613.38;2072011;69;20264;-89
2023/12/09 09:38:53;;;;;;;32.63;19.50;;;;;;;3.71;80.52;92609.34;2071921;69;20148;-90
2023/12/09 09:41:28;;;;;;;25.67;14.63;;;;;;;2.85;81.69;92608.94;2068503;69;20152;-89
2023/12/09 09:44:01;;;;;;;26.38;14.45;;;;;;;2.45;83.07;92601.28;2071691;69;20154;-89
2023/12/09 09:46:28;;;;;;;26.17;14.18;;;;;;;2.84;83.13;92593.53;2072021;69;20148;-90
2023/12/09 09:48:55;;;;;;;25.63;14.10;;;;;;;3.50;80.95;92595.00;2068598;69;20152;-88
2023/12/09 09:51:26;;;;;;;26.80;15.18;;;;;;;3.66;80.46;92588.00;2071845;69;20140;-82
2023/12/09 09:54:08;;;;;;;29.50;15.77;;;;;;;3.50;80.50;92586.66;2071774;69;20163;-81
2023/12/09 09:56:35;;;;;;;29.92;16.70;;;;;;;3.66;80.68;92588.00;2071810;69;20172;-87
2023/12/09 09:59:00;;;;;;;29.73;15.85;;;;;;;3.97;79.48;92587.75;2071948;69;20596;-87
2023/12/09 10:01:29;;;;;;;26.33;15.23;;;;;;;4.03;78.52;92586.22;2071923;69;20151;-87
2023/12/09 10:03:54;;;;;;;28.02;17.08;;;;;;;3.39;79.51;92596.22;2071833;69;20159;-83
2023/12/09 10:06:21;;;;;;;26.33;15.85;;;;;;;3.50;80.35;92590.19;2071836;69;20128;-81
2023/12/09 10:08:46;;;;;;;29.77;16.48;;;;;;;3.56;79.70;92576.03;2071733;69;20577;-89
2023/12/09 10:11:12;;;;;;;31.30;17.08;;;;;;;3.72;79.29;92574.59;2071929;69;20144;-87
2023/12/09 10:13:38;;;;;;;30.60;16.52;;;;;;;4.05;78.83;92571.72;2071837;69;20140;-88
2023/12/09 10:16:04;;;;;;;26.92;15.60;;;;;;;4.31;78.21;92553.63;2071848;69;20140;-87
2023/12/09 10:18:31;;;;;;;30.30;16.23;;;;;;;4.56;77.55;92539.59;2068492;69;20163;-87
2023/12/09 10:20:57;;;;;;;27.77;15.98;;;;;;;4.64;76.72;92522.78;2071848;69;20160;-89
2023/12/09 10:23:23;;;;;;;27.15;15.55;;;;;;;4.52;76.50;92517.69;2071652;69;20159;-85
2023/12/09 10:25:49;;;;;;;27.30;15.50;;;;;;;4.71;76.37;92517.06;2068576;69;20144;-86
2023/12/09 10:28:14;;;;;;;27.27;16.48;;;;;;;4.39;76.77;92528.44;2071738;69;20596;-88
2023/12/09 10:30:41;;;;;;;25.63;15.30;;;;;;;4.39;77.07;92520.09;2071843;69;20238;-88
2023/12/09 10:33:11;;;;;;;27.58;15.43;;;;;;;4.67;76.19;92519.53;2071620;69;20144;-82
2023/12/09 10:35:38;;;;;;;24.95;14.70;;;;;;;4.56;75.90;92528.44;2071760;69;20235;-83
2023/12/09 10:38:08;;;;;;;24.42;14.57;;;;;;;4.47;76.22;92523.53;2068313;69;20187;-82
2023/12/09 10:40:34;;;;;;;26.95;15.63;;;;;;;4.43;76.59;92510.00;2071701;69;20618;-82
2023/12/09 10:43:03;;;;;;;28.35;16.30;;;;;;;4.32;76.84;92505.66;2071727;69;20147;-86
2023/12/09 10:45:29;;;;;;;32.17;16.48;;;;;;;4.45;76.35;92495.50;2071812;69;20231;-81
2023/12/09 10:47:54;;;;;;;28.48;16.05;;;;;;;4.78;75.77;92484.84;2071697;69;20140;-82
2023/12/09 10:50:20;;;;;;;28.00;16.63;;;;;;;4.83;75.79;92492.22;2065592;69;20526;-83
2023/12/09 10:52:46;;;;;;;53.67;24.77;;;;;;;4.30;75.88;92490.81;2071556;69;20136;-84
2023/12/09 10:55:12;;;;;;;30.02;18.05;;;;;;;4.17;77.44;92489.13;2071693;69;20152;-84
2023/12/09 10:57:41;;;;;;;27.70;16.15;;;;;;;4.91;76.12;92481.69;2072025;69;20214;-84
2023/12/09 11:00:10;;;;;;;33.92;19.88;;;;;;;4.94;75.31;92468.63;2068263;69;20141;-83
2023/12/09 11:02:44;;;;;;;36.13;19.08;;;;;;;4.96;75.01;92452.06;2071673;69;20175;-83
2023/12/09 11:05:10;;;;;;;24.60;13.85;;;;;;;4.66;75.55;92456.72;2068311;69;20148;-84
2023/12/09 11:07:37;;;;;;;28.23;16.70;;;;;;;4.88;74.89;92452.16;2071569;69;20210;-84
2023/12/09 11:10:06;;;;;;;26.30;15.65;;;;;;;4.49;76.02;92454.75;2071649;69;20159;-80
2023/12/09 11:12:32;;;;;;;32.92;19.65;;;;;;;4.66;75.59;92451.16;2071801;69;20576;-81
2023/12/09 11:15:13;;;;;;;27.08;16.75;;;;;;;4.34;76.63;92460.50;2072071;69;20172;-82
2023/12/09 11:17:40;;;;;;;31.45;17.60;;;;;;;4.96;75.58;92450.00;2068280;69;20152;-84
2023/12/09 11:20:15;;;;;;;25.65;15.02;;;;;;;4.99;74.58;92454.38;2071644;69;20298;-85
2023/12/09 11:22:43;;;;;;;26.98;17.00;;;;;;;4.92;74.49;92443.38;2071673;69;20164;-87